Woody, California
Current Conditions -  °F | °C
As of 12:54 PM on Thursday 27 Nov 2014 (Local Time) from KBFL Reporting Station
Haze Haze  
Wind Chill: 67°   Ceiling: Unl
Heat Index: 67°   Visibility: 4mi
Dew Point: 44°   Wind: 5mph
Humidity: 44%   Direction: 250°WSW
Pressure: 30.11"   Gusts: NA
Location:  35.66°N, 118.81°W
Report Text: KBFL 272054Z 25004KT 4SM HZ CLR 19/07 A3011 RMK AO2 SLP193 T01940067 58024
Loading
Personal Weather Stations






























Interactive Weather Map New forecast layout! Learn more

10-Day Weather Forecast

Advertisements
Track Severe Weather on mobile